createdAt,value
2017-12-19T00:19:03.035Z,99529.31
2017-12-19T00:39:38.304Z,99529.13
2017-12-19T01:00:11.730Z,99591.93
2017-12-19T01:20:45.778Z,99572.09
2017-12-19T01:41:21.047Z,99604.80
2017-12-19T02:01:58.470Z,99635.04
2017-12-19T02:22:31.595Z,99660.03
2017-12-19T02:43:19.767Z,99652.26
2017-12-19T03:03:51.963Z,99713.92
2017-12-19T03:24:25.098Z,99720.70
2017-12-19T03:44:59.434Z,99710.91
2017-12-19T04:05:32.556Z,99725.14
2017-12-19T04:26:03.834Z,99731.91
2017-12-19T04:46:37.326Z,99771.19
2017-12-19T05:07:11.544Z,99780.42
2017-12-19T05:27:44.425Z,99785.61
2017-12-19T05:48:16.623Z,99798.55
2017-12-19T06:08:48.820Z,99824.27
2017-12-19T06:29:24.102Z,99871.55
2017-12-19T06:49:59.366Z,99882.98
2017-12-19T07:10:33.834Z,99895.64
2017-12-19T07:31:15.135Z,99900.37
2017-12-19T07:51:51.019Z,99916.48
2017-12-19T08:12:25.369Z,99923.74
2017-12-19T08:33:01.575Z,99965.67
2017-12-19T08:53:37.448Z,99985.48
2017-12-19T09:14:10.880Z,99986.28
2017-12-19T09:34:47.377Z,100012.69
2017-12-19T09:55:21.425Z,100014.66
2017-12-19T10:15:55.770Z,100020.69
2017-12-19T10:36:34.225Z,100023.36
2017-12-19T10:57:09.463Z,99997.70
2017-12-19T11:17:42.507Z,99998.92
2017-12-19T11:38:19.621Z,99999.28
2017-12-19T11:58:56.164Z,99994.45
2017-12-19T12:19:31.086Z,99985.77
2017-12-19T12:40:04.208Z,99980.48
2017-12-19T13:00:38.557Z,99976.08
2017-12-19T13:21:11.743Z,99972.60
2017-12-19T13:41:43.880Z,99990.66
2017-12-19T14:02:18.227Z,99998.48
2017-12-19T14:22:59.341Z,99993.73
2017-12-19T14:43:35.833Z,99990.27
2017-12-19T15:04:08.961Z,99970.09
2017-12-19T15:24:44.229Z,99956.37
2017-12-19T15:45:19.497Z,99954.55
2017-12-19T16:05:52.623Z,99958.45
2017-12-19T16:26:26.972Z,99980.63
2017-12-19T16:47:01.012Z,99989.83
2017-12-19T17:07:35.524Z,99998.89
2017-12-19T17:28:09.408Z,100008.17
2017-12-19T17:48:46.830Z,100036.23
2017-12-19T18:09:23.236Z,100029.33
2017-12-19T18:29:57.069Z,100020.40
2017-12-19T18:50:33.564Z,100018.55
2017-12-19T19:11:07.929Z,100024.41
2017-12-19T19:31:39.810Z,100017.77
2017-12-19T19:52:12.932Z,100028.55
2017-12-19T20:12:47.285Z,100036.16
2017-12-19T20:33:22.554Z,100012.12
2017-12-19T20:53:55.676Z,100000.88
2017-12-19T21:14:28.800Z,100010.48
2017-12-19T21:35:04.378Z,100019.52
2017-12-19T21:55:38.658Z,100012.20
2017-12-19T22:16:12.464Z,99993.06
2017-12-19T22:36:46.819Z,99970.08
2017-12-19T22:57:22.083Z,99954.73
2017-12-19T23:17:56.131Z,99940.99
2017-12-19T23:38:30.767Z,99947.34
2017-12-19T23:59:06.672Z,99936.36
